首页
METAR-TAF:

METAR-TAF

机场 :

盐湖城国际机场

盐湖城, 犹他州, 美国

纬度: 40-46-41N, 经度: 111-58-10W, 海拔: 1288米

当前天气观测

该预报发布于25分钟前的13:04 UTC
风速6节,风向东南
温度 6°C
湿度 87%
气压 1004 hPa
能見度: 16.1公里
少量云层高于900英尺
散云层高于2400英尺, 塔状积云.
阴天层高于3000英尺
小雨

METAR: KSLC 221304Z 13006KT 10SM -RA FEW009 SCT024TCU OVC030 06/04 A2965 RMK AO2 TCU NW P0000 T00610044 VISNO NW RNWY

时间: 07:29 (13:29 UTC)

预报

该预报发布于2小时和9分钟前的11:20 UTC
预报有效从22日的 12点(UTC)到 23日的 18点(UTC)
风速5节,风向东南
能見度: 9.7公里
多云层高于3000英尺
多云层高于4000英尺
小雨
从 22日的 1800点(UTC)
风速7节,风向西北
能見度: 10公里
散云层高于3000英尺
多云层高于5000英尺
小阵雨
从 23日的 0000点(UTC)
风速7节,风向西转西北
能見度: 10公里
散云层高于4000英尺
多云层高于8000英尺

TAF: KSLC 221120Z 2212/2318 13005KT 6SM -RA BKN030 BKN040 FM221800 32007KT P6SM -SHRA SCT030 BKN050 FM230000 29007KT P6SM SCT040 BKN080

超过4000个机场的气象观测和天气预报(METAR&TAF报告)。

可查询的气象台以黄色和红色小点在地图上表示。

将鼠标移到小点上方,可查看气象台名称。

然后点击查看天气观测和预报。

如需切换地图:点击带黑十字的绿色按钮放大地图;点击带横线的绿色按钮缩小地图;或者点击绿色箭头查看邻近地区的地图。


METAR-TAF: